Current | Forecast
Updated: 7:20 PM BST on October 17, 2017
Observed at Edinburgh Airport, United Kingdom
Temperature 54°F
Humidity 82%
Dew Point 48°F
Wind West at 6 mph
Pressure 29.89 in (Steady)
Conditions Mostly Cloudy
Visibility 6.2 miles
UV 0 out of 16
Clouds Mostly Cloudy (BKN) : 2500 ft
Yesterday's Maximum 61°F
Yesterday's Minimum 50°F approx.
Yesterday's Heating Degree Days 10 approx.
Sunrise7:46 AM BST
Sunset6:04 PM BST
Moon Rise4:30 AM BST
Moon Set5:45 PM BST
Moon PhaseMoon Phase
Waning Crescent
Raw METARMETAR EGPH 171820Z 28005KT 250V320 9999 BKN025 12/09 Q1012


Monday
. High: 48° F.
Tuesday
. High: 53° F.
Wednesday
. High: 50° F.
Thursday
. High: 51° F.
Friday
. High: 50° F.
Saturday
. High: 48° F.
Sunday
. High: 44° F.
Monday
. High: 49° F.

Units: English | Metric

Find the Weather for any City, State or Zipcode, or Country:

U.S. State List | Severe Weather | Tropical Storms | Ski Conditions
United States | Canada | Central America | South America | Asia | Europe | Australia | Africa | Islands

Weather Underground

© Copyright 2017
The Weather Company, LLC